sensor_id;sensor_type;location;lat;lon;timestamp;P1;durP1;ratioP1;P2;durP2;ratioP2
17570;SDS011;8903;52.220;20.978;2024-02-14T00:01:31;14.03;;;8.53;;
17570;SDS011;8903;52.220;20.978;2024-02-14T00:03:57;14.00;;;8.20;;
17570;SDS011;8903;52.220;20.978;2024-02-14T00:06:23;14.97;;;7.90;;
17570;SDS011;8903;52.220;20.978;2024-02-14T00:08:49;13.20;;;8.57;;
17570;SDS011;8903;52.220;20.978;2024-02-14T00:11:15;17.70;;;8.70;;
17570;SDS011;8903;52.220;20.978;2024-02-14T00:13:44;17.10;;;8.83;;
17570;SDS011;8903;52.220;20.978;2024-02-14T00:16:10;12.00;;;7.90;;
17570;SDS011;8903;52.220;20.978;2024-02-14T00:18:36;12.67;;;7.83;;
17570;SDS011;8903;52.220;20.978;2024-02-14T00:21:04;13.30;;;8.53;;
17570;SDS011;8903;52.220;20.978;2024-02-14T00:23:30;13.67;;;8.53;;
17570;SDS011;8903;52.220;20.978;2024-02-14T00:25:56;12.57;;;7.50;;
17570;SDS011;8903;52.220;20.978;2024-02-14T00:28:22;11.43;;;8.30;;
17570;SDS011;8903;52.220;20.978;2024-02-14T00:30:51;14.40;;;7.20;;
17570;SDS011;8903;52.220;20.978;2024-02-14T00:33:17;11.87;;;8.13;;
17570;SDS011;8903;52.220;20.978;2024-02-14T00:35:45;12.70;;;8.73;;
17570;SDS011;8903;52.220;20.978;2024-02-14T00:38:11;13.00;;;7.90;;
17570;SDS011;8903;52.220;20.978;2024-02-14T00:40:37;12.93;;;7.67;;
17570;SDS011;8903;52.220;20.978;2024-02-14T00:43:02;15.23;;;8.30;;
17570;SDS011;8903;52.220;20.978;2024-02-14T00:45:28;10.73;;;8.30;;
17570;SDS011;8903;52.220;20.978;2024-02-14T00:47:54;13.27;;;7.70;;
17570;SDS011;8903;52.220;20.978;2024-02-14T00:50:20;9.70;;;7.10;;
17570;SDS011;8903;52.220;20.978;2024-02-14T00:52:46;14.00;;;8.70;;
17570;SDS011;8903;52.220;20.978;2024-02-14T00:55:12;15.57;;;8.53;;
17570;SDS011;8903;52.220;20.978;2024-02-14T00:57:38;15.33;;;8.13;;
17570;SDS011;8903;52.220;20.978;2024-02-14T01:00:04;18.73;;;8.93;;
17570;SDS011;8903;52.220;20.978;2024-02-14T01:02:31;16.07;;;8.03;;
17570;SDS011;8903;52.220;20.978;2024-02-14T01:04:57;16.00;;;8.37;;
17570;SDS011;8903;52.220;20.978;2024-02-14T01:07:23;15.40;;;9.53;;
17570;SDS011;8903;52.220;20.978;2024-02-14T01:09:49;13.67;;;9.27;;
17570;SDS011;8903;52.220;20.978;2024-02-14T01:12:15;11.83;;;8.77;;
17570;SDS011;8903;52.220;20.978;2024-02-14T01:14:41;14.40;;;9.20;;
17570;SDS011;8903;52.220;20.978;2024-02-14T01:17:07;15.43;;;9.37;;
17570;SDS011;8903;52.220;20.978;2024-02-14T01:19:33;23.93;;;10.60;;
17570;SDS011;8903;52.220;20.978;2024-02-14T01:21:59;22.00;;;10.40;;
17570;SDS011;8903;52.220;20.978;2024-02-14T01:24:25;18.67;;;10.70;;
17570;SDS011;8903;52.220;20.978;2024-02-14T01:26:55;18.20;;;11.77;;
17570;SDS011;8903;52.220;20.978;2024-02-14T01:29:21;20.50;;;11.13;;
17570;SDS011;8903;52.220;20.978;2024-02-14T01:31:48;19.87;;;11.43;;
17570;SDS011;8903;52.220;20.978;2024-02-14T01:34:15;15.97;;;10.53;;
17570;SDS011;8903;52.220;20.978;2024-02-14T01:36:41;21.17;;;11.73;;
17570;SDS011;8903;52.220;20.978;2024-02-14T01:39:06;18.63;;;10.97;;
17570;SDS011;8903;52.220;20.978;2024-02-14T01:41:43;18.40;;;12.00;;
17570;SDS011;8903;52.220;20.978;2024-02-14T01:44:11;14.87;;;9.97;;
17570;SDS011;8903;52.220;20.978;2024-02-14T01:46:37;17.87;;;10.80;;
17570;SDS011;8903;52.220;20.978;2024-02-14T01:49:03;16.90;;;11.40;;
17570;SDS011;8903;52.220;20.978;2024-02-14T01:51:29;17.33;;;11.30;;
17570;SDS011;8903;52.220;20.978;2024-02-14T01:53:56;16.70;;;10.10;;
17570;SDS011;8903;52.220;20.978;2024-02-14T01:56:24;14.80;;;10.00;;
17570;SDS011;8903;52.220;20.978;2024-02-14T01:58:50;15.53;;;10.90;;
17570;SDS011;8903;52.220;20.978;2024-02-14T02:01:17;18.37;;;10.83;;
17570;SDS011;8903;52.220;20.978;2024-02-14T02:03:43;17.67;;;11.00;;
17570;SDS011;8903;52.220;20.978;2024-02-14T02:06:09;21.00;;;11.07;;
17570;SDS011;8903;52.220;20.978;2024-02-14T02:08:35;15.00;;;9.73;;
17570;SDS011;8903;52.220;20.978;2024-02-14T02:11:01;18.17;;;9.53;;
17570;SDS011;8903;52.220;20.978;2024-02-14T02:13:27;18.20;;;9.73;;
17570;SDS011;8903;52.220;20.978;2024-02-14T02:15:53;16.90;;;10.40;;
17570;SDS011;8903;52.220;20.978;2024-02-14T02:18:19;15.10;;;10.30;;
17570;SDS011;8903;52.220;20.978;2024-02-14T02:20:44;15.43;;;10.67;;
17570;SDS011;8903;52.220;20.978;2024-02-14T02:23:11;18.87;;;9.47;;
17570;SDS011;8903;52.220;20.978;2024-02-14T02:25:40;24.40;;;11.23;;
17570;SDS011;8903;52.220;20.978;2024-02-14T02:28:06;18.83;;;10.33;;
17570;SDS011;8903;52.220;20.978;2024-02-14T02:30:34;19.47;;;11.07;;
17570;SDS011;8903;52.220;20.978;2024-02-14T02:33:01;18.10;;;10.80;;
17570;SDS011;8903;52.220;20.978;2024-02-14T02:35:28;16.40;;;10.53;;
17570;SDS011;8903;52.220;20.978;2024-02-14T02:37:55;18.90;;;10.70;;
17570;SDS011;8903;52.220;20.978;2024-02-14T02:40:22;14.23;;;10.20;;
17570;SDS011;8903;52.220;20.978;2024-02-14T02:42:49;15.93;;;10.40;;
17570;SDS011;8903;52.220;20.978;2024-02-14T02:45:16;15.83;;;10.50;;
17570;SDS011;8903;52.220;20.978;2024-02-14T02:47:42;15.83;;;10.27;;
17570;SDS011;8903;52.220;20.978;2024-02-14T02:50:08;18.67;;;12.20;;
17570;SDS011;8903;52.220;20.978;2024-02-14T02:52:34;17.37;;;10.90;;
17570;SDS011;8903;52.220;20.978;2024-02-14T02:55:00;15.40;;;10.50;;
17570;SDS011;8903;52.220;20.978;2024-02-14T02:57:26;16.33;;;11.20;;
17570;SDS011;8903;52.220;20.978;2024-02-14T02:59:53;18.17;;;10.77;;
17570;SDS011;8903;52.220;20.978;2024-02-14T03:02:19;15.40;;;10.40;;
17570;SDS011;8903;52.220;20.978;2024-02-14T03:04:45;18.67;;;10.50;;
17570;SDS011;8903;52.220;20.978;2024-02-14T03:07:12;15.87;;;10.90;;
17570;SDS011;8903;52.220;20.978;2024-02-14T03:09:38;15.87;;;11.67;;
17570;SDS011;8903;52.220;20.978;2024-02-14T03:12:04;16.10;;;11.07;;
17570;SDS011;8903;52.220;20.978;2024-02-14T03:14:30;26.40;;;12.90;;
17570;SDS011;8903;52.220;20.978;2024-02-14T03:16:58;15.47;;;10.70;;
17570;SDS011;8903;52.220;20.978;2024-02-14T03:19:25;16.27;;;11.10;;
17570;SDS011;8903;52.220;20.978;2024-02-14T03:21:52;17.97;;;12.50;;
17570;SDS011;8903;52.220;20.978;2024-02-14T03:24:19;18.20;;;11.43;;
17570;SDS011;8903;52.220;20.978;2024-02-14T03:26:45;18.10;;;11.43;;
17570;SDS011;8903;52.220;20.978;2024-02-14T03:29:11;20.87;;;12.40;;
17570;SDS011;8903;52.220;20.978;2024-02-14T03:31:37;20.43;;;13.30;;
17570;SDS011;8903;52.220;20.978;2024-02-14T03:34:04;19.90;;;11.77;;
17570;SDS011;8903;52.220;20.978;2024-02-14T03:36:30;20.60;;;13.20;;
17570;SDS011;8903;52.220;20.978;2024-02-14T03:38:58;22.90;;;12.90;;
17570;SDS011;8903;52.220;20.978;2024-02-14T03:41:25;24.30;;;13.60;;
17570;SDS011;8903;52.220;20.978;2024-02-14T03:43:52;18.90;;;12.50;;
17570;SDS011;8903;52.220;20.978;2024-02-14T03:46:19;17.10;;;13.53;;
17570;SDS011;8903;52.220;20.978;2024-02-14T03:48:46;22.67;;;14.30;;
17570;SDS011;8903;52.220;20.978;2024-02-14T03:51:13;23.10;;;13.53;;
17570;SDS011;8903;52.220;20.978;2024-02-14T03:53:39;24.20;;;13.57;;
17570;SDS011;8903;52.220;20.978;2024-02-14T03:56:05;23.07;;;15.13;;
17570;SDS011;8903;52.220;20.978;2024-02-14T03:58:32;26.57;;;15.80;;
17570;SDS011;8903;52.220;20.978;2024-02-14T04:01:05;26.50;;;14.33;;
17570;SDS011;8903;52.220;20.978;2024-02-14T04:03:31;19.87;;;13.10;;
17570;SDS011;8903;52.220;20.978;2024-02-14T04:05:57;25.67;;;15.30;;
17570;SDS011;8903;52.220;20.978;2024-02-14T04:08:23;24.13;;;15.10;;
17570;SDS011;8903;52.220;20.978;2024-02-14T04:10:49;20.33;;;14.53;;
17570;SDS011;8903;52.220;20.978;2024-02-14T04:13:20;25.90;;;13.93;;
17570;SDS011;8903;52.220;20.978;2024-02-14T04:15:46;24.07;;;14.60;;
17570;SDS011;8903;52.220;20.978;2024-02-14T04:18:14;19.57;;;13.20;;
17570;SDS011;8903;52.220;20.978;2024-02-14T04:20:43;25.43;;;14.10;;
17570;SDS011;8903;52.220;20.978;2024-02-14T04:23:09;20.53;;;14.23;;
17570;SDS011;8903;52.220;20.978;2024-02-14T04:25:35;19.97;;;15.00;;
17570;SDS011;8903;52.220;20.978;2024-02-14T04:28:02;24.83;;;15.00;;
17570;SDS011;8903;52.220;20.978;2024-02-14T04:30:28;28.27;;;15.03;;
17570;SDS011;8903;52.220;20.978;2024-02-14T04:32:54;23.97;;;14.50;;
17570;SDS011;8903;52.220;20.978;2024-02-14T04:35:20;25.03;;;14.50;;
17570;SDS011;8903;52.220;20.978;2024-02-14T04:37:46;22.83;;;14.83;;
17570;SDS011;8903;52.220;20.978;2024-02-14T04:40:14;26.50;;;15.63;;
17570;SDS011;8903;52.220;20.978;2024-02-14T04:42:43;23.50;;;14.90;;
17570;SDS011;8903;52.220;20.978;2024-02-14T04:45:09;27.20;;;14.80;;
17570;SDS011;8903;52.220;20.978;2024-02-14T04:47:35;27.57;;;15.90;;
17570;SDS011;8903;52.220;20.978;2024-02-14T04:50:01;22.40;;;14.23;;
17570;SDS011;8903;52.220;20.978;2024-02-14T04:52:29;27.83;;;15.63;;
17570;SDS011;8903;52.220;20.978;2024-02-14T04:54:55;19.83;;;14.33;;
17570;SDS011;8903;52.220;20.978;2024-02-14T04:57:22;25.17;;;15.53;;
17570;SDS011;8903;52.220;20.978;2024-02-14T04:59:48;20.50;;;13.87;;
17570;SDS011;8903;52.220;20.978;2024-02-14T05:02:13;23.20;;;15.20;;
17570;SDS011;8903;52.220;20.978;2024-02-14T05:04:40;21.97;;;13.80;;
17570;SDS011;8903;52.220;20.978;2024-02-14T05:07:05;20.77;;;14.40;;
17570;SDS011;8903;52.220;20.978;2024-02-14T05:09:31;19.87;;;13.97;;
17570;SDS011;8903;52.220;20.978;2024-02-14T05:11:57;21.20;;;14.27;;
17570;SDS011;8903;52.220;20.978;2024-02-14T05:14:23;21.93;;;14.17;;
17570;SDS011;8903;52.220;20.978;2024-02-14T05:16:49;21.43;;;14.47;;
17570;SDS011;8903;52.220;20.978;2024-02-14T05:19:15;24.13;;;15.00;;
17570;SDS011;8903;52.220;20.978;2024-02-14T05:21:40;20.97;;;14.17;;
17570;SDS011;8903;52.220;20.978;2024-02-14T05:24:06;22.53;;;13.83;;
17570;SDS011;8903;52.220;20.978;2024-02-14T05:26:33;22.43;;;15.10;;
17570;SDS011;8903;52.220;20.978;2024-02-14T05:28:58;24.37;;;14.73;;
17570;SDS011;8903;52.220;20.978;2024-02-14T05:31:24;29.27;;;15.00;;
17570;SDS011;8903;52.220;20.978;2024-02-14T05:34:07;26.90;;;14.87;;
17570;SDS011;8903;52.220;20.978;2024-02-14T05:36:33;21.73;;;15.20;;
17570;SDS011;8903;52.220;20.978;2024-02-14T05:38:58;21.00;;;14.40;;
17570;SDS011;8903;52.220;20.978;2024-02-14T05:41:24;20.70;;;14.33;;
17570;SDS011;8903;52.220;20.978;2024-02-14T05:43:50;22.07;;;14.37;;
17570;SDS011;8903;52.220;20.978;2024-02-14T05:46:16;19.60;;;12.93;;
17570;SDS011;8903;52.220;20.978;2024-02-14T05:48:42;19.70;;;13.13;;
17570;SDS011;8903;52.220;20.978;2024-02-14T05:51:07;23.90;;;14.37;;
17570;SDS011;8903;52.220;20.978;2024-02-14T05:53:33;20.77;;;14.70;;
17570;SDS011;8903;52.220;20.978;2024-02-14T05:55:59;21.03;;;12.50;;
17570;SDS011;8903;52.220;20.978;2024-02-14T05:58:24;19.43;;;11.90;;
17570;SDS011;8903;52.220;20.978;2024-02-14T06:00:53;17.00;;;12.27;;
17570;SDS011;8903;52.220;20.978;2024-02-14T06:03:20;20.60;;;12.67;;
17570;SDS011;8903;52.220;20.978;2024-02-14T06:05:46;22.47;;;13.37;;
17570;SDS011;8903;52.220;20.978;2024-02-14T06:08:12;21.50;;;12.70;;
17570;SDS011;8903;52.220;20.978;2024-02-14T06:10:38;19.40;;;13.77;;
17570;SDS011;8903;52.220;20.978;2024-02-14T06:13:04;24.00;;;13.67;;
17570;SDS011;8903;52.220;20.978;2024-02-14T06:15:30;18.77;;;12.20;;
17570;SDS011;8903;52.220;20.978;2024-02-14T06:17:56;19.03;;;13.63;;
17570;SDS011;8903;52.220;20.978;2024-02-14T06:20:22;19.43;;;12.90;;
17570;SDS011;8903;52.220;20.978;2024-02-14T06:22:48;21.53;;;13.07;;
17570;SDS011;8903;52.220;20.978;2024-02-14T06:25:14;18.20;;;12.00;;
17570;SDS011;8903;52.220;20.978;2024-02-14T06:27:41;21.90;;;12.40;;
17570;SDS011;8903;52.220;20.978;2024-02-14T06:30:07;22.70;;;15.07;;
17570;SDS011;8903;52.220;20.978;2024-02-14T06:32:33;22.57;;;13.60;;
17570;SDS011;8903;52.220;20.978;2024-02-14T06:34:59;23.53;;;14.33;;
17570;SDS011;8903;52.220;20.978;2024-02-14T06:37:25;23.77;;;12.97;;
17570;SDS011;8903;52.220;20.978;2024-02-14T06:39:51;28.57;;;14.80;;
17570;SDS011;8903;52.220;20.978;2024-02-14T06:42:16;18.87;;;14.67;;
17570;SDS011;8903;52.220;20.978;2024-02-14T06:44:42;20.60;;;12.67;;
17570;SDS011;8903;52.220;20.978;2024-02-14T06:47:08;22.93;;;14.20;;
17570;SDS011;8903;52.220;20.978;2024-02-14T06:49:34;25.13;;;14.27;;
17570;SDS011;8903;52.220;20.978;2024-02-14T06:52:00;19.83;;;13.30;;
17570;SDS011;8903;52.220;20.978;2024-02-14T06:54:26;23.17;;;13.50;;
17570;SDS011;8903;52.220;20.978;2024-02-14T06:56:51;23.03;;;14.10;;
17570;SDS011;8903;52.220;20.978;2024-02-14T06:59:17;21.60;;;13.80;;
17570;SDS011;8903;52.220;20.978;2024-02-14T07:01:43;19.67;;;13.13;;
17570;SDS011;8903;52.220;20.978;2024-02-14T07:04:09;26.40;;;15.63;;
17570;SDS011;8903;52.220;20.978;2024-02-14T07:06:34;19.63;;;14.30;;
17570;SDS011;8903;52.220;20.978;2024-02-14T07:09:00;19.80;;;12.37;;
17570;SDS011;8903;52.220;20.978;2024-02-14T07:11:26;24.80;;;12.90;;
17570;SDS011;8903;52.220;20.978;2024-02-14T07:13:52;21.13;;;13.40;;
17570;SDS011;8903;52.220;20.978;2024-02-14T07:16:18;22.10;;;13.60;;
17570;SDS011;8903;52.220;20.978;2024-02-14T07:18:43;26.20;;;15.80;;
17570;SDS011;8903;52.220;20.978;2024-02-14T07:21:09;22.20;;;12.50;;
17570;SDS011;8903;52.220;20.978;2024-02-14T07:23:35;49.67;;;16.53;;
17570;SDS011;8903;52.220;20.978;2024-02-14T07:26:01;65.37;;;18.37;;
17570;SDS011;8903;52.220;20.978;2024-02-14T07:28:26;31.27;;;15.53;;
17570;SDS011;8903;52.220;20.978;2024-02-14T07:30:52;26.03;;;13.57;;
17570;SDS011;8903;52.220;20.978;2024-02-14T07:33:18;19.00;;;13.60;;
17570;SDS011;8903;52.220;20.978;2024-02-14T07:35:44;73.03;;;16.67;;
17570;SDS011;8903;52.220;20.978;2024-02-14T07:38:09;33.10;;;14.27;;
17570;SDS011;8903;52.220;20.978;2024-02-14T07:40:35;19.60;;;13.10;;
17570;SDS011;8903;52.220;20.978;2024-02-14T07:43:01;18.57;;;13.40;;
17570;SDS011;8903;52.220;20.978;2024-02-14T07:45:27;35.27;;;14.60;;
17570;SDS011;8903;52.220;20.978;2024-02-14T07:47:53;57.20;;;17.20;;
17570;SDS011;8903;52.220;20.978;2024-02-14T07:50:19;66.80;;;16.60;;
17570;SDS011;8903;52.220;20.978;2024-02-14T07:52:48;20.63;;;12.80;;
17570;SDS011;8903;52.220;20.978;2024-02-14T07:55:13;18.40;;;12.80;;
17570;SDS011;8903;52.220;20.978;2024-02-14T07:57:39;23.40;;;14.43;;
17570;SDS011;8903;52.220;20.978;2024-02-14T08:00:06;24.90;;;13.80;;
17570;SDS011;8903;52.220;20.978;2024-02-14T08:02:35;21.30;;;13.30;;
17570;SDS011;8903;52.220;20.978;2024-02-14T08:05:02;21.17;;;13.43;;
17570;SDS011;8903;52.220;20.978;2024-02-14T08:07:30;26.50;;;13.23;;
17570;SDS011;8903;52.220;20.978;2024-02-14T08:09:56;20.67;;;12.87;;
17570;SDS011;8903;52.220;20.978;2024-02-14T08:12:30;17.43;;;13.33;;
17570;SDS011;8903;52.220;20.978;2024-02-14T08:14:59;17.97;;;11.63;;
17570;SDS011;8903;52.220;20.978;2024-02-14T08:17:29;19.73;;;11.80;;
17570;SDS011;8903;52.220;20.978;2024-02-14T08:19:55;19.73;;;12.40;;
17570;SDS011;8903;52.220;20.978;2024-02-14T08:22:23;20.73;;;12.00;;
17570;SDS011;8903;52.220;20.978;2024-02-14T08:24:52;16.80;;;10.33;;
17570;SDS011;8903;52.220;20.978;2024-02-14T08:27:21;19.93;;;12.03;;
17570;SDS011;8903;52.220;20.978;2024-02-14T08:29:47;20.73;;;13.00;;
17570;SDS011;8903;52.220;20.978;2024-02-14T08:32:13;16.47;;;11.20;;
17570;SDS011;8903;52.220;20.978;2024-02-14T08:34:42;17.10;;;10.13;;
17570;SDS011;8903;52.220;20.978;2024-02-14T08:37:08;18.70;;;11.57;;
17570;SDS011;8903;52.220;20.978;2024-02-14T08:39:36;18.23;;;11.90;;
17570;SDS011;8903;52.220;20.978;2024-02-14T08:42:02;15.53;;;9.53;;
17570;SDS011;8903;52.220;20.978;2024-02-14T08:44:33;18.47;;;9.73;;
17570;SDS011;8903;52.220;20.978;2024-02-14T08:46:59;11.50;;;8.40;;
17570;SDS011;8903;52.220;20.978;2024-02-14T08:49:25;16.87;;;8.43;;
17570;SDS011;8903;52.220;20.978;2024-02-14T08:51:51;17.40;;;8.90;;
17570;SDS011;8903;52.220;20.978;2024-02-14T08:54:17;12.40;;;8.77;;
17570;SDS011;8903;52.220;20.978;2024-02-14T08:56:43;14.10;;;9.80;;
17570;SDS011;8903;52.220;20.978;2024-02-14T08:59:08;11.80;;;8.83;;
17570;SDS011;8903;52.220;20.978;2024-02-14T09:01:44;11.93;;;9.50;;
17570;SDS011;8903;52.220;20.978;2024-02-14T09:04:13;15.67;;;9.60;;
17570;SDS011;8903;52.220;20.978;2024-02-14T09:06:39;11.70;;;9.23;;
17570;SDS011;8903;52.220;20.978;2024-02-14T09:09:06;15.90;;;8.80;;
17570;SDS011;8903;52.220;20.978;2024-02-14T09:11:35;8.50;;;7.53;;
17570;SDS011;8903;52.220;20.978;2024-02-14T09:14:02;9.70;;;7.47;;
17570;SDS011;8903;52.220;20.978;2024-02-14T09:16:34;13.67;;;6.87;;
17570;SDS011;8903;52.220;20.978;2024-02-14T09:19:00;9.07;;;5.73;;
17570;SDS011;8903;52.220;20.978;2024-02-14T09:21:30;13.50;;;7.00;;
17570;SDS011;8903;52.220;20.978;2024-02-14T09:23:58;7.47;;;6.00;;
17570;SDS011;8903;52.220;20.978;2024-02-14T09:26:24;8.47;;;6.10;;
17570;SDS011;8903;52.220;20.978;2024-02-14T09:28:49;19.53;;;7.77;;
17570;SDS011;8903;52.220;20.978;2024-02-14T09:31:18;11.43;;;7.33;;
17570;SDS011;8903;52.220;20.978;2024-02-14T09:33:46;9.30;;;6.50;;
17570;SDS011;8903;52.220;20.978;2024-02-14T09:36:13;9.60;;;7.37;;
17570;SDS011;8903;52.220;20.978;2024-02-14T09:38:42;10.33;;;5.97;;
17570;SDS011;8903;52.220;20.978;2024-02-14T09:41:51;8.23;;;6.13;;
17570;SDS011;8903;52.220;20.978;2024-02-14T09:43:58;9.97;;;5.70;;
17570;SDS011;8903;52.220;20.978;2024-02-14T09:46:24;16.43;;;7.37;;
17570;SDS011;8903;52.220;20.978;2024-02-14T09:48:53;12.83;;;6.63;;
17570;SDS011;8903;52.220;20.978;2024-02-14T09:51:20;9.50;;;6.30;;
17570;SDS011;8903;52.220;20.978;2024-02-14T09:53:46;13.37;;;5.63;;
17570;SDS011;8903;52.220;20.978;2024-02-14T09:56:13;9.50;;;6.20;;
17570;SDS011;8903;52.220;20.978;2024-02-14T09:58:41;10.90;;;5.70;;
17570;SDS011;8903;52.220;20.978;2024-02-14T10:01:09;14.47;;;5.50;;
17570;SDS011;8903;52.220;20.978;2024-02-14T10:03:34;8.33;;;4.57;;
17570;SDS011;8903;52.220;20.978;2024-02-14T10:06:01;26.13;;;6.27;;
17570;SDS011;8903;52.220;20.978;2024-02-14T10:08:27;7.13;;;4.33;;
17570;SDS011;8903;52.220;20.978;2024-02-14T10:10:56;4.97;;;4.33;;
17570;SDS011;8903;52.220;20.978;2024-02-14T10:13:23;7.20;;;3.60;;
17570;SDS011;8903;52.220;20.978;2024-02-14T10:15:51;5.27;;;4.13;;
17570;SDS011;8903;52.220;20.978;2024-02-14T10:18:17;7.23;;;4.60;;
17570;SDS011;8903;52.220;20.978;2024-02-14T10:20:52;11.30;;;4.20;;
17570;SDS011;8903;52.220;20.978;2024-02-14T10:23:19;9.20;;;3.50;;
17570;SDS011;8903;52.220;20.978;2024-02-14T10:25:45;7.73;;;3.40;;
17570;SDS011;8903;52.220;20.978;2024-02-14T10:28:12;9.90;;;3.70;;
17570;SDS011;8903;52.220;20.978;2024-02-14T10:30:38;14.70;;;4.37;;
17570;SDS011;8903;52.220;20.978;2024-02-14T10:33:05;8.50;;;3.17;;
17570;SDS011;8903;52.220;20.978;2024-02-14T10:35:32;5.13;;;3.40;;
17570;SDS011;8903;52.220;20.978;2024-02-14T10:38:02;5.93;;;3.73;;
17570;SDS011;8903;52.220;20.978;2024-02-14T10:40:28;26.63;;;6.07;;
17570;SDS011;8903;52.220;20.978;2024-02-14T10:42:54;3.93;;;3.10;;
17570;SDS011;8903;52.220;20.978;2024-02-14T10:45:22;5.07;;;2.90;;
17570;SDS011;8903;52.220;20.978;2024-02-14T10:47:48;4.00;;;2.70;;
17570;SDS011;8903;52.220;20.978;2024-02-14T10:50:16;4.50;;;2.60;;
17570;SDS011;8903;52.220;20.978;2024-02-14T10:52:43;7.17;;;3.03;;
17570;SDS011;8903;52.220;20.978;2024-02-14T10:55:11;4.33;;;3.00;;
17570;SDS011;8903;52.220;20.978;2024-02-14T10:57:37;8.53;;;3.50;;
17570;SDS011;8903;52.220;20.978;2024-02-14T11:00:07;4.03;;;2.93;;
17570;SDS011;8903;52.220;20.978;2024-02-14T11:02:35;5.83;;;3.60;;
17570;SDS011;8903;52.220;20.978;2024-02-14T11:05:02;9.33;;;2.67;;
17570;SDS011;8903;52.220;20.978;2024-02-14T11:07:29;4.57;;;2.37;;
17570;SDS011;8903;52.220;20.978;2024-02-14T11:10:08;7.10;;;2.83;;
17570;SDS011;8903;52.220;20.978;2024-02-14T11:12:38;6.93;;;3.83;;
17570;SDS011;8903;52.220;20.978;2024-02-14T11:15:12;3.47;;;2.50;;
17570;SDS011;8903;52.220;20.978;2024-02-14T11:17:48;4.63;;;2.07;;
17570;SDS011;8903;52.220;20.978;2024-02-14T11:20:19;3.83;;;2.37;;
17570;SDS011;8903;52.220;20.978;2024-02-14T11:22:50;4.23;;;2.37;;
17570;SDS011;8903;52.220;20.978;2024-02-14T11:25:22;6.00;;;3.20;;
17570;SDS011;8903;52.220;20.978;2024-02-14T11:27:55;4.50;;;2.60;;
17570;SDS011;8903;52.220;20.978;2024-02-14T11:30:28;2.93;;;2.63;;
17570;SDS011;8903;52.220;20.978;2024-02-14T11:33:08;7.83;;;2.60;;
17570;SDS011;8903;52.220;20.978;2024-02-14T11:35:43;12.80;;;3.60;;
17570;SDS011;8903;52.220;20.978;2024-02-14T11:38:10;7.30;;;2.60;;
17570;SDS011;8903;52.220;20.978;2024-02-14T11:40:36;4.53;;;2.43;;
17570;SDS011;8903;52.220;20.978;2024-02-14T11:45:42;19.57;;;4.03;;
17570;SDS011;8903;52.220;20.978;2024-02-14T11:48:12;21.30;;;4.20;;
17570;SDS011;8903;52.220;20.978;2024-02-14T11:50:41;10.73;;;2.80;;
17570;SDS011;8903;52.220;20.978;2024-02-14T11:53:11;4.63;;;2.67;;
17570;SDS011;8903;52.220;20.978;2024-02-14T11:55:40;6.53;;;3.30;;
17570;SDS011;8903;52.220;20.978;2024-02-14T11:58:07;8.10;;;3.27;;
17570;SDS011;8903;52.220;20.978;2024-02-14T12:00:36;3.40;;;3.10;;
17570;SDS011;8903;52.220;20.978;2024-02-14T12:03:05;4.33;;;2.53;;
17570;SDS011;8903;52.220;20.978;2024-02-14T12:05:34;6.97;;;4.50;;
17570;SDS011;8903;52.220;20.978;2024-02-14T12:08:02;4.50;;;2.93;;
17570;SDS011;8903;52.220;20.978;2024-02-14T12:10:31;3.53;;;2.10;;
17570;SDS011;8903;52.220;20.978;2024-02-14T12:12:57;2.97;;;2.13;;
17570;SDS011;8903;52.220;20.978;2024-02-14T12:15:25;4.90;;;2.63;;
17570;SDS011;8903;52.220;20.978;2024-02-14T12:17:54;3.77;;;2.30;;
17570;SDS011;8903;52.220;20.978;2024-02-14T12:20:21;5.60;;;2.43;;
17570;SDS011;8903;52.220;20.978;2024-02-14T12:22:51;3.80;;;2.50;;
17570;SDS011;8903;52.220;20.978;2024-02-14T12:25:17;7.73;;;2.50;;
17570;SDS011;8903;52.220;20.978;2024-02-14T12:27:42;6.50;;;2.03;;
17570;SDS011;8903;52.220;20.978;2024-02-14T12:30:16;3.57;;;1.80;;
17570;SDS011;8903;52.220;20.978;2024-02-14T12:32:42;3.70;;;2.30;;
17570;SDS011;8903;52.220;20.978;2024-02-14T12:35:08;5.60;;;2.00;;
17570;SDS011;8903;52.220;20.978;2024-02-14T12:37:35;3.50;;;2.40;;
17570;SDS011;8903;52.220;20.978;2024-02-14T12:40:01;3.30;;;1.83;;
17570;SDS011;8903;52.220;20.978;2024-02-14T12:42:27;2.90;;;1.87;;
17570;SDS011;8903;52.220;20.978;2024-02-14T12:44:56;8.43;;;2.53;;
17570;SDS011;8903;52.220;20.978;2024-02-14T12:47:22;33.17;;;6.53;;
17570;SDS011;8903;52.220;20.978;2024-02-14T12:49:48;3.30;;;2.70;;
17570;SDS011;8903;52.220;20.978;2024-02-14T12:52:17;3.13;;;2.17;;
17570;SDS011;8903;52.220;20.978;2024-02-14T12:54:43;4.00;;;2.43;;
17570;SDS011;8903;52.220;20.978;2024-02-14T12:57:14;3.47;;;1.80;;
17570;SDS011;8903;52.220;20.978;2024-02-14T12:59:39;2.30;;;2.10;;
17570;SDS011;8903;52.220;20.978;2024-02-14T13:02:06;4.00;;;2.10;;
17570;SDS011;8903;52.220;20.978;2024-02-14T13:04:32;5.53;;;2.83;;
17570;SDS011;8903;52.220;20.978;2024-02-14T13:06:58;7.17;;;3.00;;
17570;SDS011;8903;52.220;20.978;2024-02-14T13:09:24;4.57;;;2.37;;
17570;SDS011;8903;52.220;20.978;2024-02-14T13:11:49;13.20;;;3.47;;
17570;SDS011;8903;52.220;20.978;2024-02-14T13:14:16;21.93;;;3.87;;
17570;SDS011;8903;52.220;20.978;2024-02-14T13:16:42;15.50;;;2.70;;
17570;SDS011;8903;52.220;20.978;2024-02-14T13:19:08;2.70;;;2.50;;
17570;SDS011;8903;52.220;20.978;2024-02-14T13:21:34;5.27;;;2.83;;
17570;SDS011;8903;52.220;20.978;2024-02-14T13:23:59;5.33;;;2.80;;
17570;SDS011;8903;52.220;20.978;2024-02-14T13:26:25;7.07;;;2.90;;
17570;SDS011;8903;52.220;20.978;2024-02-14T13:28:53;7.47;;;2.97;;
17570;SDS011;8903;52.220;20.978;2024-02-14T13:31:20;3.20;;;2.90;;
17570;SDS011;8903;52.220;20.978;2024-02-14T13:33:46;6.00;;;2.40;;
17570;SDS011;8903;52.220;20.978;2024-02-14T13:36:12;4.90;;;1.93;;
17570;SDS011;8903;52.220;20.978;2024-02-14T13:38:40;4.33;;;2.37;;
17570;SDS011;8903;52.220;20.978;2024-02-14T13:41:06;5.20;;;2.57;;
17570;SDS011;8903;52.220;20.978;2024-02-14T13:43:32;6.53;;;3.80;;
17570;SDS011;8903;52.220;20.978;2024-02-14T13:45:58;2.60;;;2.33;;
17570;SDS011;8903;52.220;20.978;2024-02-14T13:48:23;5.47;;;2.00;;
17570;SDS011;8903;52.220;20.978;2024-02-14T13:50:49;6.27;;;2.33;;
17570;SDS011;8903;52.220;20.978;2024-02-14T13:53:16;3.13;;;2.53;;
17570;SDS011;8903;52.220;20.978;2024-02-14T13:55:42;6.47;;;2.30;;
17570;SDS011;8903;52.220;20.978;2024-02-14T13:58:08;13.43;;;2.77;;
17570;SDS011;8903;52.220;20.978;2024-02-14T14:00:39;4.57;;;2.07;;
17570;SDS011;8903;52.220;20.978;2024-02-14T14:03:05;4.07;;;2.33;;
17570;SDS011;8903;52.220;20.978;2024-02-14T14:05:30;5.33;;;2.93;;
17570;SDS011;8903;52.220;20.978;2024-02-14T14:07:56;3.20;;;2.30;;
17570;SDS011;8903;52.220;20.978;2024-02-14T14:10:24;7.33;;;3.40;;
17570;SDS011;8903;52.220;20.978;2024-02-14T14:12:53;6.63;;;2.63;;
17570;SDS011;8903;52.220;20.978;2024-02-14T14:15:19;3.23;;;1.83;;
17570;SDS011;8903;52.220;20.978;2024-02-14T14:17:47;2.87;;;2.43;;
17570;SDS011;8903;52.220;20.978;2024-02-14T14:20:13;3.17;;;2.33;;
17570;SDS011;8903;52.220;20.978;2024-02-14T14:22:39;8.10;;;2.50;;
17570;SDS011;8903;52.220;20.978;2024-02-14T14:25:05;8.10;;;2.30;;
17570;SDS011;8903;52.220;20.978;2024-02-14T14:27:33;4.97;;;2.57;;
17570;SDS011;8903;52.220;20.978;2024-02-14T14:29:59;5.27;;;2.87;;
17570;SDS011;8903;52.220;20.978;2024-02-14T14:32:25;5.10;;;2.63;;